createdAt,value
2018-04-11T00:01:14.833Z,17.70
2018-04-11T00:03:45.396Z,16.00
2018-04-11T00:06:11.980Z,17.83
2018-04-11T00:08:38.617Z,17.67
2018-04-11T00:11:05.165Z,16.47
2018-04-11T00:13:35.393Z,17.37
2018-04-11T00:16:02.030Z,19.57
2018-04-11T00:18:28.573Z,19.50
2018-04-11T00:20:55.205Z,18.33
2018-04-11T00:23:25.409Z,19.53
2018-04-11T00:25:52.005Z,18.50
2018-04-11T00:28:18.635Z,18.10
2018-04-11T00:30:45.219Z,17.10
2018-04-11T00:33:11.812Z,17.30
2018-04-11T00:35:38.429Z,16.60
2018-04-11T00:38:05.033Z,17.60
2018-04-11T00:40:31.743Z,22.87
2018-04-11T00:43:02.337Z,25.93
2018-04-11T00:45:28.996Z,23.67
2018-04-11T00:47:55.550Z,20.83
2018-04-11T00:50:22.236Z,19.10
2018-04-11T00:53:04.434Z,16.53
2018-04-11T00:55:31.031Z,16.90
2018-04-11T00:57:57.588Z,16.67
2018-04-11T01:00:24.130Z,16.20
2018-04-11T01:02:52.051Z,15.97
2018-04-11T01:05:18.546Z,15.10
2018-04-11T01:07:45.282Z,16.60
2018-04-11T01:10:12.176Z,16.33
2018-04-11T01:12:43.955Z,16.93
2018-04-11T01:15:10.596Z,17.97
2018-04-11T01:17:37.372Z,21.43
2018-04-11T01:20:03.999Z,21.67
2018-04-11T01:22:33.816Z,21.70
2018-04-11T01:25:00.436Z,20.67
2018-04-11T01:27:27.033Z,19.20
2018-04-11T01:29:53.627Z,20.67
2018-04-11T01:32:30.703Z,19.07
2018-04-11T01:34:57.326Z,19.47
2018-04-11T01:37:23.989Z,19.70
2018-04-11T01:39:50.675Z,18.20
2018-04-11T01:42:20.592Z,19.13
2018-04-11T01:44:47.315Z,19.33
2018-04-11T01:47:13.945Z,19.97
2018-04-11T01:49:40.667Z,20.73
2018-04-11T01:52:08.372Z,20.43
2018-04-11T01:54:34.948Z,19.97
2018-04-11T01:57:02.028Z,20.70
2018-04-11T01:59:28.763Z,20.07
2018-04-11T02:02:03.060Z,19.87
2018-04-11T02:04:29.764Z,18.10
2018-04-11T02:06:56.353Z,18.43
2018-04-11T02:09:23.107Z,17.30
2018-04-11T02:12:04.175Z,18.60
2018-04-11T02:14:30.911Z,18.07
2018-04-11T02:16:58.075Z,13.53
2018-04-11T02:19:24.671Z,9.50
2018-04-11T02:21:58.261Z,9.57
2018-04-11T02:24:24.891Z,11.40
2018-04-11T02:26:51.517Z,13.90
2018-04-11T02:29:18.201Z,16.13
2018-04-11T02:31:48.608Z,16.43
2018-04-11T02:34:15.275Z,18.60
2018-04-11T02:36:41.967Z,20.13
2018-04-11T02:39:09.428Z,24.17
2018-04-11T02:41:48.923Z,34.47
2018-04-11T02:44:15.493Z,25.80
2018-04-11T02:46:42.104Z,24.27
2018-04-11T02:49:08.692Z,31.77
2018-04-11T02:51:39.705Z,24.73
2018-04-11T02:54:06.389Z,24.23
2018-04-11T02:56:33.040Z,22.10
2018-04-11T02:58:59.575Z,20.17
2018-04-11T03:01:29.572Z,22.80
2018-04-11T03:03:56.099Z,23.20
2018-04-11T03:06:22.725Z,25.23
2018-04-11T03:08:49.369Z,28.27
2018-04-11T03:11:20.463Z,33.10
2018-04-11T03:13:47.060Z,34.97
2018-04-11T03:16:13.697Z,27.50
2018-04-11T03:18:40.384Z,28.37
2018-04-11T03:21:11.075Z,30.10
2018-04-11T03:23:37.636Z,30.80
2018-04-11T03:26:04.274Z,28.53
2018-04-11T03:28:30.926Z,27.73
2018-04-11T03:30:58.663Z,26.77
2018-04-11T03:33:25.171Z,36.17
2018-04-11T03:35:51.759Z,33.80
2018-04-11T03:38:18.390Z,30.43
2018-04-11T03:40:45.899Z,37.10
2018-04-11T03:43:12.519Z,32.07
2018-04-11T03:45:39.163Z,33.17
2018-04-11T03:48:05.784Z,24.47
2018-04-11T03:50:32.472Z,24.03
2018-04-11T03:53:00.444Z,24.50
2018-04-11T03:55:27.212Z,23.57
2018-04-11T03:57:54.230Z,24.33
2018-04-11T04:00:21.020Z,24.67
2018-04-11T04:02:48.741Z,27.73
2018-04-11T04:05:15.468Z,27.27
2018-04-11T04:07:42.144Z,27.87
2018-04-11T04:10:08.749Z,30.40
2018-04-11T04:12:36.517Z,31.70
2018-04-11T04:15:14.964Z,31.17
2018-04-11T04:17:53.499Z,34.33
2018-04-11T04:20:32.128Z,26.73
2018-04-11T04:23:02.607Z,30.77
2018-04-11T04:25:29.211Z,28.03
2018-04-11T04:27:55.875Z,29.43
2018-04-11T04:30:22.443Z,27.60
2018-04-11T04:32:50.264Z,29.70
2018-04-11T04:35:16.951Z,28.80
2018-04-11T04:37:43.511Z,31.17
2018-04-11T04:40:10.120Z,28.03
2018-04-11T04:42:40.589Z,29.80
2018-04-11T04:45:07.217Z,30.10
2018-04-11T04:47:33.789Z,28.23
2018-04-11T04:50:00.402Z,29.63
2018-04-11T04:52:28.013Z,29.77
2018-04-11T04:54:54.712Z,28.03
2018-04-11T04:57:21.450Z,29.67
2018-04-11T04:59:48.020Z,30.73
2018-04-11T05:02:20.027Z,32.80
2018-04-11T05:04:46.727Z,29.73
2018-04-11T05:07:13.408Z,31.80
2018-04-11T05:09:40.045Z,32.57
2018-04-11T05:12:07.704Z,30.97
2018-04-11T05:14:34.415Z,32.50
2018-04-11T05:17:01.056Z,34.13
2018-04-11T05:19:27.622Z,36.60
2018-04-11T05:21:56.015Z,36.00
2018-04-11T05:24:22.658Z,36.90
2018-04-11T05:26:49.317Z,37.87
2018-04-11T05:29:16.036Z,35.97
2018-04-11T05:31:42.887Z,37.50
2018-04-11T05:34:09.595Z,36.53
2018-04-11T05:36:36.264Z,36.97
2018-04-11T05:39:06.635Z,37.03
2018-04-11T05:41:38.513Z,37.53
2018-04-11T05:44:05.227Z,37.53
2018-04-11T05:46:32.061Z,36.73
2018-04-11T05:48:58.856Z,37.40
2018-04-11T05:51:28.539Z,37.93
2018-04-11T05:53:55.124Z,37.13
2018-04-11T05:56:22.082Z,35.40
2018-04-11T05:58:48.849Z,35.40
2018-04-11T06:01:18.619Z,33.90
2018-04-11T06:03:45.895Z,33.53
2018-04-11T06:06:12.523Z,33.37
2018-04-11T06:08:39.044Z,31.87
2018-04-11T06:11:08.605Z,32.23
2018-04-11T06:13:35.190Z,29.77
2018-04-11T06:16:01.879Z,27.50
2018-04-11T06:18:28.512Z,26.87
2018-04-11T06:20:58.607Z,26.97
2018-04-11T06:23:25.347Z,27.03
2018-04-11T06:25:52.000Z,28.17
2018-04-11T06:28:18.561Z,26.53
2018-04-11T06:30:48.605Z,25.50
2018-04-11T06:33:15.259Z,24.97
2018-04-11T06:35:41.842Z,23.07
2018-04-11T06:38:08.440Z,23.40
2018-04-11T06:40:42.350Z,24.33
2018-04-11T06:43:09.064Z,24.07
2018-04-11T06:45:35.828Z,22.40
2018-04-11T06:48:02.465Z,24.20
2018-04-11T06:50:36.763Z,23.77
2018-04-11T06:53:03.380Z,20.77
2018-04-11T06:55:30.168Z,20.00
2018-04-11T06:57:56.652Z,19.60
2018-04-11T07:00:33.660Z,24.27
2018-04-11T07:03:00.258Z,23.63
2018-04-11T07:05:26.871Z,24.03
2018-04-11T07:07:53.500Z,20.13
2018-04-11T07:10:20.298Z,19.30
2018-04-11T07:12:46.907Z,21.47
2018-04-11T07:15:13.492Z,19.30
2018-04-11T07:17:40.180Z,19.87
2018-04-11T07:20:06.846Z,21.00
2018-04-11T07:22:34.512Z,19.80
2018-04-11T07:25:01.235Z,19.80
2018-04-11T07:27:27.812Z,18.73
2018-04-11T07:29:54.499Z,17.13
2018-04-11T07:32:28.407Z,17.37
2018-04-11T07:34:55.128Z,15.80
2018-04-11T07:37:21.728Z,17.73
2018-04-11T07:39:48.432Z,17.83
2018-04-11T07:42:18.526Z,14.20
2018-04-11T07:44:45.175Z,14.13
2018-04-11T07:47:11.796Z,13.43
2018-04-11T07:49:38.399Z,14.67
2018-04-11T07:52:09.635Z,12.43
2018-04-11T07:54:36.363Z,11.80
2018-04-11T07:57:02.944Z,12.70
2018-04-11T07:59:29.736Z,12.90
2018-04-11T08:01:59.567Z,14.77
2018-04-11T08:04:26.262Z,12.70
2018-04-11T08:06:52.972Z,12.17
2018-04-11T08:09:19.667Z,11.10
2018-04-11T08:11:49.487Z,11.93
2018-04-11T08:14:16.233Z,10.40
2018-04-11T08:16:42.877Z,11.23
2018-04-11T08:19:09.566Z,10.30
2018-04-11T08:21:47.320Z,9.47
2018-04-11T08:24:13.896Z,9.87
2018-04-11T08:26:40.585Z,9.80
2018-04-11T08:29:07.232Z,15.47
2018-04-11T08:31:39.753Z,11.20
2018-04-11T08:34:06.503Z,8.97
2018-04-11T08:36:33.156Z,11.10
2018-04-11T08:38:59.876Z,10.60
2018-04-11T08:41:26.655Z,9.00
2018-04-11T08:43:53.236Z,8.37
2018-04-11T08:46:19.830Z,7.20
2018-04-11T08:48:46.468Z,8.07
2018-04-11T08:51:14.275Z,12.60
2018-04-11T08:53:40.953Z,13.83
2018-04-11T08:56:07.603Z,14.20
2018-04-11T08:58:34.292Z,12.10
2018-04-11T09:01:08.393Z,12.80
2018-04-11T09:03:35.081Z,15.43
2018-04-11T09:06:01.767Z,7.97
2018-04-11T09:08:28.488Z,8.20
2018-04-11T09:10:58.704Z,9.53
2018-04-11T09:13:25.446Z,11.37
2018-04-11T09:15:52.662Z,10.97
2018-04-11T09:18:19.439Z,6.53
2018-04-11T09:20:59.424Z,9.43
2018-04-11T09:23:26.110Z,8.23
2018-04-11T09:25:52.738Z,7.00
2018-04-11T09:28:19.352Z,7.47
2018-04-11T09:30:49.781Z,7.93
2018-04-11T09:33:16.421Z,8.03
2018-04-11T09:35:43.019Z,8.20
2018-04-11T09:38:09.695Z,6.87
2018-04-11T09:40:43.820Z,7.20
2018-04-11T09:43:10.531Z,6.40
2018-04-11T09:45:37.291Z,6.70
2018-04-11T09:48:03.940Z,6.67
2018-04-11T09:50:31.940Z,11.07
2018-04-11T09:52:58.659Z,9.07
2018-04-11T09:55:25.334Z,8.40
2018-04-11T09:57:52.023Z,5.30
2018-04-11T10:00:22.540Z,5.70
2018-04-11T10:02:55.203Z,6.80
2018-04-11T10:05:21.939Z,6.40
2018-04-11T10:07:48.732Z,6.23
2018-04-11T10:10:16.095Z,6.10
2018-04-11T10:12:42.716Z,6.70
2018-04-11T10:15:09.301Z,6.33
2018-04-11T10:17:35.961Z,6.37
2018-04-11T10:20:02.562Z,6.10
2018-04-11T10:22:29.216Z,6.07
2018-04-11T10:24:55.970Z,6.67
2018-04-11T10:27:22.484Z,8.10
2018-04-11T10:29:52.876Z,7.77
2018-04-11T10:32:19.527Z,8.87
2018-04-11T10:34:46.097Z,7.43
2018-04-11T10:37:12.695Z,9.27
2018-04-11T10:39:39.407Z,8.77
2018-04-11T10:42:07.245Z,7.43
2018-04-11T10:44:33.921Z,8.27
2018-04-11T10:47:00.565Z,7.83
2018-04-11T10:49:27.287Z,7.40
2018-04-11T10:52:04.720Z,8.00
2018-04-11T10:54:31.524Z,7.93
2018-04-11T10:56:58.095Z,8.63
2018-04-11T10:59:24.749Z,9.93
2018-04-11T11:01:54.640Z,25.87
2018-04-11T11:04:22.067Z,7.83
2018-04-11T11:06:48.768Z,8.87
2018-04-11T11:09:15.452Z,7.43
2018-04-11T11:11:46.102Z,8.57
2018-04-11T11:14:12.860Z,9.47
2018-04-11T11:16:39.298Z,10.07
2018-04-11T11:19:06.036Z,11.80
2018-04-11T11:21:36.560Z,11.60
2018-04-11T11:24:03.061Z,9.90
2018-04-11T11:26:29.764Z,13.30
2018-04-11T11:28:56.523Z,24.30
2018-04-11T11:31:28.137Z,20.53
2018-04-11T11:33:55.016Z,26.77
2018-04-11T11:36:21.755Z,15.53
2018-04-11T11:38:48.434Z,12.20
2018-04-11T11:41:19.555Z,16.70
2018-04-11T11:43:46.226Z,23.17
2018-04-11T11:46:12.944Z,17.93
2018-04-11T11:48:39.548Z,11.10
2018-04-11T11:51:12.280Z,11.13
2018-04-11T11:53:39.022Z,18.87
2018-04-11T11:56:05.536Z,17.23
2018-04-11T11:58:32.140Z,12.60
2018-04-11T12:01:01.860Z,12.30
2018-04-11T12:03:28.452Z,13.37
2018-04-11T12:05:55.087Z,17.57
2018-04-11T12:08:21.719Z,9.53
2018-04-11T12:10:55.896Z,9.17
2018-04-11T12:13:22.656Z,13.30
2018-04-11T12:15:49.371Z,18.67
2018-04-11T12:18:16.029Z,19.57
2018-04-11T12:20:46.456Z,10.03
2018-04-11T12:23:13.133Z,9.67
2018-04-11T12:25:39.873Z,8.33
2018-04-11T12:28:06.483Z,13.90
2018-04-11T12:30:40.227Z,9.87
2018-04-11T12:33:06.944Z,8.50
2018-04-11T12:35:33.681Z,8.37
2018-04-11T12:38:00.400Z,9.60
2018-04-11T12:40:32.079Z,10.77
2018-04-11T12:42:58.734Z,9.63
2018-04-11T12:45:25.383Z,10.40
2018-04-11T12:47:51.971Z,10.33
2018-04-11T12:50:31.838Z,11.03
2018-04-11T12:52:58.596Z,11.40
2018-04-11T12:55:25.194Z,11.07
2018-04-11T12:57:51.861Z,10.30
2018-04-11T13:00:29.111Z,11.93
2018-04-11T13:02:55.879Z,10.00
2018-04-11T13:05:22.781Z,10.43
2018-04-11T13:07:49.546Z,10.63
2018-04-11T13:10:21.336Z,10.73
2018-04-11T13:12:48.094Z,11.27
2018-04-11T13:15:14.788Z,11.17
2018-04-11T13:17:41.445Z,10.87
2018-04-11T13:20:11.611Z,10.07
2018-04-11T13:22:38.307Z,11.60
2018-04-11T13:27:37.142Z,11.03
2018-04-11T13:30:08.597Z,11.50
2018-04-11T13:32:35.220Z,12.40
2018-04-11T13:35:01.842Z,10.60
2018-04-11T13:37:28.493Z,10.70
2018-04-11T13:40:00.007Z,11.67
2018-04-11T13:42:26.695Z,11.97
2018-04-11T13:44:53.402Z,10.80
2018-04-11T13:47:20.163Z,10.70
2018-04-11T13:49:57.649Z,10.10
2018-04-11T13:52:24.237Z,10.43
2018-04-11T13:54:50.729Z,11.23
2018-04-11T13:57:17.434Z,11.50
2018-04-11T14:00:04.740Z,11.60
2018-04-11T14:02:31.552Z,11.50
2018-04-11T14:04:58.270Z,10.90
2018-04-11T14:07:24.968Z,11.60
2018-04-11T14:09:52.801Z,11.53
2018-04-11T14:12:19.511Z,12.37
2018-04-11T14:14:46.065Z,12.10
2018-04-11T14:17:12.810Z,12.60
2018-04-11T14:19:49.547Z,12.30
2018-04-11T14:22:16.148Z,14.13
2018-04-11T14:24:42.829Z,14.13
2018-04-11T14:27:09.389Z,14.53
2018-04-11T14:29:39.514Z,14.00
2018-04-11T14:32:06.216Z,16.67
2018-04-11T14:34:32.805Z,14.53
2018-04-11T14:36:59.545Z,14.87
2018-04-11T14:39:30.964Z,14.47
2018-04-11T14:41:57.602Z,13.10
2018-04-11T14:44:24.269Z,13.90
2018-04-11T14:46:50.913Z,14.73
2018-04-11T14:49:21.318Z,13.93
2018-04-11T14:51:47.857Z,14.60
2018-04-11T14:54:14.628Z,14.50
2018-04-11T14:56:41.242Z,14.67
2018-04-11T14:59:07.954Z,15.90
2018-04-11T15:01:34.561Z,14.17
2018-04-11T15:04:01.266Z,14.93
2018-04-11T15:06:27.973Z,14.50
2018-04-11T15:08:54.601Z,14.27
2018-04-11T15:11:24.758Z,14.93
2018-04-11T15:13:51.304Z,13.77
2018-04-11T15:16:17.904Z,15.07
2018-04-11T15:18:44.499Z,15.13
2018-04-11T15:21:15.102Z,16.33
2018-04-11T15:23:41.830Z,16.43
2018-04-11T15:26:08.539Z,15.60
2018-04-11T15:28:35.170Z,17.10
2018-04-11T15:31:07.986Z,17.70
2018-04-11T15:33:34.658Z,17.87
2018-04-11T15:36:01.279Z,26.50
2018-04-11T15:38:28.016Z,19.83
2018-04-11T15:40:58.175Z,22.33
2018-04-11T15:43:24.753Z,23.43
2018-04-11T15:45:51.455Z,20.73
2018-04-11T15:48:17.995Z,22.07
2018-04-11T15:50:51.998Z,21.77
2018-04-11T15:53:18.509Z,22.77
2018-04-11T15:55:45.190Z,22.67
2018-04-11T15:58:11.897Z,21.90
2018-04-11T16:00:42.495Z,21.83
2018-04-11T16:03:09.173Z,22.17
2018-04-11T16:05:35.751Z,23.40
2018-04-11T16:08:02.542Z,27.00
2018-04-11T16:10:33.491Z,25.87
2018-04-11T16:13:00.208Z,25.80
2018-04-11T16:15:26.945Z,28.37
2018-04-11T16:17:53.641Z,24.83
2018-04-11T16:20:34.935Z,23.70
2018-04-11T16:23:01.893Z,21.90
2018-04-11T16:25:28.550Z,22.43
2018-04-11T16:27:55.254Z,29.37
2018-04-11T16:30:28.828Z,27.77
2018-04-11T16:32:55.521Z,23.27
2018-04-11T16:35:22.201Z,24.80
2018-04-11T16:37:48.767Z,23.03
2018-04-11T16:40:19.014Z,24.77
2018-04-11T16:42:45.730Z,37.20
2018-04-11T16:45:13.326Z,35.23
2018-04-11T16:47:40.092Z,32.27
2018-04-11T16:50:11.219Z,39.20
2018-04-11T16:52:38.145Z,22.70
2018-04-11T16:55:04.710Z,27.20
2018-04-11T16:57:31.343Z,23.87
2018-04-11T17:00:08.139Z,25.77
2018-04-11T17:02:34.720Z,23.93
2018-04-11T17:05:01.443Z,25.37
2018-04-11T17:07:28.409Z,23.27
2018-04-11T17:10:00.481Z,22.70
2018-04-11T17:12:27.200Z,23.90
2018-04-11T17:14:54.155Z,21.00
2018-04-11T17:17:20.984Z,23.03
2018-04-11T17:19:58.268Z,26.93
2018-04-11T17:22:37.887Z,24.07
2018-04-11T17:25:16.437Z,23.63
2018-04-11T17:27:55.635Z,26.73
2018-04-11T17:30:37.619Z,23.93
2018-04-11T17:33:04.222Z,27.87
2018-04-11T17:35:30.922Z,29.27
2018-04-11T17:37:57.508Z,28.20
2018-04-11T17:40:28.039Z,30.23
2018-04-11T17:42:54.645Z,29.43
2018-04-11T17:45:21.882Z,28.47
2018-04-11T17:47:48.478Z,27.10
2018-04-11T17:50:15.317Z,23.37
2018-04-11T17:52:42.843Z,24.50
2018-04-11T17:55:09.551Z,23.13
2018-04-11T17:57:37.165Z,23.50
2018-04-11T18:00:08.326Z,20.77
2018-04-11T18:02:34.936Z,21.73
2018-04-11T18:05:01.630Z,23.50
2018-04-11T18:07:28.251Z,25.00
2018-04-11T18:10:01.162Z,24.03
2018-04-11T18:12:27.705Z,24.07
2018-04-11T18:14:55.294Z,22.70
2018-04-11T18:17:21.959Z,23.50
2018-04-11T18:19:54.803Z,25.93
2018-04-11T18:22:21.471Z,24.37
2018-04-11T18:24:48.108Z,23.57
2018-04-11T18:27:14.769Z,23.23
2018-04-11T18:29:49.707Z,21.93
2018-04-11T18:32:16.258Z,22.33
2018-04-11T18:34:42.936Z,25.37
2018-04-11T18:37:09.688Z,26.63
2018-04-11T18:39:40.000Z,22.33
2018-04-11T18:42:06.513Z,23.10
2018-04-11T18:44:33.130Z,26.03
2018-04-11T18:46:59.811Z,21.67
2018-04-11T18:49:30.140Z,23.53
2018-04-11T18:51:56.731Z,23.33
2018-04-11T18:54:23.596Z,24.80
2018-04-11T18:56:50.244Z,22.93
2018-04-11T18:59:19.930Z,21.57
2018-04-11T19:01:46.561Z,24.57
2018-04-11T19:04:13.237Z,24.40
2018-04-11T19:06:39.961Z,26.30
2018-04-11T19:09:08.601Z,22.90
2018-04-11T19:11:35.253Z,23.60
2018-04-11T19:14:01.860Z,21.13
2018-04-11T19:16:28.516Z,21.20
2018-04-11T19:19:00.479Z,19.77
2018-04-11T19:21:27.055Z,28.03
2018-04-11T19:23:54.726Z,22.97
2018-04-11T19:26:22.247Z,24.67
2018-04-11T19:28:50.020Z,23.57
2018-04-11T19:31:20.460Z,25.00
2018-04-11T19:33:46.980Z,23.60
2018-04-11T19:36:14.588Z,26.60
2018-04-11T19:38:44.574Z,34.63
2018-04-11T19:41:11.160Z,24.57
2018-04-11T19:43:37.875Z,23.60
2018-04-11T19:46:04.606Z,27.60
2018-04-11T19:48:35.648Z,28.03
2018-04-11T19:51:02.293Z,21.20
2018-04-11T19:53:28.982Z,20.90
2018-04-11T19:55:55.659Z,19.53
2018-04-11T19:58:22.366Z,20.73
2018-04-11T20:00:48.953Z,18.43
2018-04-11T20:03:21.582Z,17.90
2018-04-11T20:05:48.314Z,19.60
2018-04-11T20:08:14.863Z,18.80
2018-04-11T20:10:44.624Z,17.73
2018-04-11T20:13:11.330Z,17.63
2018-04-11T20:15:38.153Z,18.87
2018-04-11T20:18:04.810Z,20.30
2018-04-11T20:20:34.883Z,19.83
2018-04-11T20:23:01.464Z,18.43
2018-04-11T20:25:28.147Z,19.10
2018-04-11T20:27:54.965Z,18.10
2018-04-11T20:30:27.284Z,19.47
2018-04-11T20:32:53.892Z,19.97
2018-04-11T20:35:20.555Z,23.30
2018-04-11T20:37:47.188Z,23.97
2018-04-11T20:40:18.328Z,24.50
2018-04-11T20:42:45.140Z,20.43
2018-04-11T20:45:11.747Z,20.47
2018-04-11T20:47:38.444Z,19.60
2018-04-11T20:50:06.078Z,20.73
2018-04-11T20:52:32.797Z,19.53
2018-04-11T20:54:59.368Z,21.53
2018-04-11T20:57:26.115Z,20.97
2018-04-11T20:59:53.861Z,20.93
2018-04-11T21:02:20.533Z,20.93
2018-04-11T21:04:47.110Z,19.73
2018-04-11T21:07:13.800Z,20.07
2018-04-11T21:09:43.917Z,20.73
2018-04-11T21:12:10.603Z,21.60
2018-04-11T21:14:37.287Z,24.50
2018-04-11T21:17:03.888Z,24.60
2018-04-11T21:19:37.074Z,25.73
2018-04-11T21:22:03.702Z,24.73
2018-04-11T21:24:30.302Z,23.23
2018-04-11T21:26:57.018Z,23.40
2018-04-11T21:29:27.451Z,23.50
2018-04-11T21:31:54.129Z,24.10
2018-04-11T21:34:20.788Z,23.97
2018-04-11T21:36:47.365Z,26.33
2018-04-11T21:39:14.915Z,24.23
2018-04-11T21:41:41.593Z,23.73
2018-04-11T21:44:08.254Z,26.87
2018-04-11T21:46:34.970Z,27.93
2018-04-11T21:49:02.597Z,26.83
2018-04-11T21:51:28.979Z,26.27
2018-04-11T21:53:55.486Z,26.40
2018-04-11T21:56:22.197Z,25.53
2018-04-11T21:58:53.167Z,27.07
2018-04-11T22:01:19.744Z,25.17
2018-04-11T22:03:50.138Z,26.93
2018-04-11T22:06:16.637Z,27.40
2018-04-11T22:08:47.005Z,26.87
2018-04-11T22:11:13.634Z,23.73
2018-04-11T22:13:40.143Z,24.20
2018-04-11T22:16:06.789Z,24.83
2018-04-11T22:18:37.618Z,24.90
2018-04-11T22:21:04.199Z,26.27
2018-04-11T22:23:31.785Z,27.03
2018-04-11T22:25:58.457Z,25.50
2018-04-11T22:28:28.953Z,24.93
2018-04-11T22:30:56.025Z,24.53
2018-04-11T22:33:22.714Z,26.53
2018-04-11T22:35:49.285Z,25.63
2018-04-11T22:38:16.042Z,25.50
2018-04-11T22:40:42.663Z,28.07
2018-04-11T22:43:09.350Z,25.73
2018-04-11T22:45:35.998Z,25.80
2018-04-11T22:48:06.113Z,27.80
2018-04-11T22:50:32.849Z,28.60
2018-04-11T22:52:59.498Z,29.43
2018-04-11T22:55:26.065Z,30.40
2018-04-11T22:57:52.699Z,30.20
2018-04-11T23:00:19.371Z,28.70
2018-04-11T23:02:46.024Z,26.83
2018-04-11T23:05:12.520Z,29.67
2018-04-11T23:07:39.287Z,30.93
2018-04-11T23:10:10.105Z,33.27
2018-04-11T23:12:36.847Z,29.47
2018-04-11T23:15:03.392Z,30.97
2018-04-11T23:17:30.092Z,32.83
2018-04-11T23:20:01.538Z,31.10
2018-04-11T23:22:28.336Z,32.40
2018-04-11T23:24:54.985Z,27.23
2018-04-11T23:27:22.063Z,28.13
2018-04-11T23:29:48.759Z,26.63
2018-04-11T23:32:15.319Z,25.10
2018-04-11T23:34:41.989Z,24.73
2018-04-11T23:37:08.626Z,23.07
2018-04-11T23:39:35.537Z,23.13
2018-04-11T23:42:02.341Z,23.13
2018-04-11T23:44:28.862Z,24.40
2018-04-11T23:46:55.595Z,26.50
2018-04-11T23:49:25.924Z,33.10
2018-04-11T23:51:52.690Z,30.27
2018-04-11T23:54:19.570Z,31.63
2018-04-11T23:56:46.334Z,32.40
2018-04-11T23:59:14.939Z,33.53
